Time;durP1;ratioP1;P1;durP2;ratioP2;P2;SDS_P1;SDS_P2;PMS_P1;PMS_P2;Temp;Humidity;BMP_temperature;BMP_pressure;BME280_temperature;BME280_humidity;BME280_pressure;Samples;Min_cycle;Max_cycle;Signal;HPM_P1;HPM_P2
2023/03/04 00:02:22;;;;;;;;;50.75;39.25;;;;;7.18;51.22;102192.91;5042549;28;46661;-65
2023/03/04 00:04:48;;;;;;;;;54.50;40.75;;;;;7.17;51.53;102199.81;5045911;28;45508;-67
2023/03/04 00:07:15;;;;;;;;;50.75;40.25;;;;;7.14;51.09;102191.00;5053283;28;45479;-67
2023/03/04 00:09:42;;;;;;;;;54.25;40.50;;;;;7.13;51.44;102191.84;5053771;28;45427;-68
2023/03/04 00:12:08;;;;;;;;;47.75;38.50;;;;;7.15;51.02;102205.81;5035777;28;46545;-69
2023/03/04 00:14:33;;;;;;;;;52.25;39.75;;;;;7.10;51.58;102200.41;5055968;28;45380;-67
2023/03/04 00:16:59;;;;;;;;;53.50;42.50;;;;;6.96;51.11;102178.13;5053190;28;45491;-65
2023/03/04 00:19:24;;;;;;;;;55.00;44.75;;;;;6.95;51.35;102184.16;5054939;28;45457;-65
2023/03/04 00:21:50;;;;;;;;;51.75;40.75;;;;;7.00;51.70;102195.69;5029460;28;45494;-66
2023/03/04 00:24:15;;;;;;;;;57.00;43.75;;;;;7.03;51.08;102202.72;5052933;28;45577;-66
2023/03/04 00:26:41;;;;;;;;;54.50;41.25;;;;;6.96;51.52;102194.66;5052820;28;45529;-68
2023/03/04 00:29:07;;;;;;;;;54.50;41.75;;;;;7.00;51.96;102203.50;5053498;28;45683;-72
2023/03/04 00:31:32;;;;;;;;;54.50;41.75;;;;;6.99;51.47;102202.56;5040486;28;45875;-66
2023/03/04 00:33:58;;;;;;;;;55.00;42.50;;;;;6.97;51.26;102200.75;5042807;28;45834;-66
2023/03/04 00:36:24;;;;;;;;;51.75;38.75;;;;;6.90;52.07;102191.78;5054048;28;45392;-72
2023/03/04 00:38:50;;;;;;;;;57.50;43.00;;;;;7.00;52.20;102209.59;5053307;28;45374;-68
2023/03/04 00:41:16;;;;;;;;;50.00;40.75;;;;;6.98;52.18;102203.41;5043016;28;45545;-67
2023/03/04 00:43:41;;;;;;;;;52.25;40.50;;;;;6.95;51.65;102210.22;5053983;28;45374;-65
2023/03/04 00:46:07;;;;;;;;;54.00;39.75;;;;;6.93;51.24;102210.16;5039861;28;45661;-67
2023/03/04 00:48:32;;;;;;;;;48.50;38.50;;;;;6.96;51.91;102217.22;5053371;28;45363;-70
2023/03/04 00:50:58;;;;;;;;;50.00;38.75;;;;;6.99;51.62;102219.94;5053141;28;45776;-65
2023/03/04 00:53:23;;;;;;;;;54.00;42.75;;;;;6.94;51.46;102211.06;5054145;28;45407;-68
2023/03/04 00:55:49;;;;;;;;;51.75;41.25;;;;;6.99;51.78;102220.81;5059606;28;45428;-69
2023/03/04 00:58:15;;;;;;;;;48.50;38.25;;;;;6.85;52.47;102198.53;5059740;28;45541;-67
2023/03/04 01:00:40;;;;;;;;;56.50;43.50;;;;;6.96;51.91;102218.09;5060426;28;46238;-68
2023/03/04 01:03:06;;;;;;;;;53.25;40.50;;;;;6.93;51.98;102219.69;5039548;28;45599;-70
2023/03/04 01:05:34;;;;;;;;;54.00;44.00;;;;;6.83;52.25;102209.72;5056370;28;45432;-70
2023/03/04 01:08:00;;;;;;;;;58.50;44.75;;;;;6.95;51.63;102237.16;5047673;28;45374;-68
2023/03/04 01:10:26;;;;;;;;;55.75;41.75;;;;;6.91;52.54;102223.97;5055872;28;45410;-67
2023/03/04 01:12:52;;;;;;;;;64.25;45.00;;;;;6.87;52.21;102211.63;5056313;28;45443;-67
2023/03/04 01:15:17;;;;;;;;;57.00;43.25;;;;;6.89;52.27;102221.28;5054349;28;45513;-70
2023/03/04 01:17:43;;;;;;;;;62.50;46.75;;;;;6.88;51.93;102221.19;5056338;28;45387;-64
2023/03/04 01:20:09;;;;;;;;;57.00;43.00;;;;;6.85;52.04;102219.38;5059175;28;45303;-67
2023/03/04 01:22:35;;;;;;;;;55.50;43.00;;;;;6.88;52.48;102221.19;5049436;28;45810;-65
2023/03/04 01:25:01;;;;;;;;;47.00;39.00;;;;;6.86;52.44;102222.84;5051734;28;45490;-68
2023/03/04 01:27:26;;;;;;;;;60.75;44.75;;;;;6.80;52.56;102216.56;5024593;28;45545;-65
2023/03/04 01:29:52;;;;;;;;;61.25;46.50;;;;;6.77;52.46;102213.84;5051213;28;46422;-65
2023/03/04 01:32:17;;;;;;;;;59.75;43.75;;;;;6.77;52.63;102213.84;5054394;28;45397;-65
2023/03/04 01:34:43;;;;;;;;;61.25;45.50;;;;;6.75;52.69;102210.28;5055567;28;45423;-65
2023/03/04 01:37:08;;;;;;;;;57.25;42.75;;;;;6.71;53.06;102205.78;5059240;28;45462;-66
2023/03/04 01:39:34;;;;;;;;;62.75;46.75;;;;;6.73;52.77;102209.34;5059766;28;45477;-65
2023/03/04 01:42:00;;;;;;;;;62.75;48.75;;;;;6.75;52.62;102209.41;5055364;28;45460;-67
2023/03/04 01:44:25;;;;;;;;;56.50;43.00;;;;;6.67;53.12;102202.97;5025354;28;45351;-66
2023/03/04 01:46:54;;;;;;;;;68.75;49.50;;;;;6.71;52.76;102208.38;5050529;28;45359;-66
2023/03/04 01:49:21;;;;;;;;;57.50;45.00;;;;;6.66;52.70;102196.88;5055772;28;45438;-66
2023/03/04 01:51:51;;;;;;;;;65.00;49.00;;;;;6.67;52.78;102201.28;5037521;28;45439;-68
2023/03/04 01:54:17;;;;;;;;;62.50;48.25;;;;;6.67;52.78;102197.78;5053987;28;45398;-66
2023/03/04 01:56:45;;;;;;;;;59.75;45.25;;;;;6.65;53.11;102192.53;5054385;28;45397;-67
2023/03/04 01:59:25;;;;;;;;;60.75;48.50;;;;;6.62;52.99;102194.09;5055106;28;46102;-66
2023/03/04 02:01:59;;;;;;;;;56.00;44.25;;;;;6.68;52.23;102197.84;5055389;28;45645;-68
2023/03/04 02:04:28;;;;;;;;;59.75;44.25;;;;;6.64;53.13;102187.25;5054929;28;45481;-66
2023/03/04 02:06:55;;;;;;;;;58.00;45.75;;;;;6.67;52.56;102189.97;5055592;28;45381;-64
2023/03/04 02:09:21;;;;;;;;;57.75;45.50;;;;;6.65;52.49;102183.81;5054786;28;45580;-67
2023/03/04 02:11:51;;;;;;;;;62.00;47.75;;;;;6.63;52.22;102186.34;5037179;28;45442;-65
2023/03/04 02:14:18;;;;;;;;;57.00;42.25;;;;;6.66;52.95;102185.59;5054984;28;45804;-67
2023/03/04 02:16:44;;;;;;;;;58.00;43.25;;;;;6.67;52.84;102202.97;5049249;28;45590;-67
2023/03/04 02:19:37;;;;;;;;;60.50;43.25;;;;;6.53;52.46;102179.00;5049164;28;45486;-67
2023/03/04 02:22:03;;;;;;;;;58.75;42.25;;;;;6.46;53.05;102166.56;5055328;28;45596;-70
2023/03/04 02:24:54;;;;;;;;;59.25;45.25;;;;;6.53;52.41;102187.69;5055362;28;45328;-69
2023/03/04 02:27:23;;;;;;;;;58.75;46.50;;;;;6.52;52.75;102195.44;5053644;28;45607;-72
2023/03/04 02:29:48;;;;;;;;;60.75;45.50;;;;;6.44;53.05;102195.13;5054769;28;45961;-69
2023/03/04 02:32:15;;;;;;;;;55.25;43.50;;;;;6.39;53.15;102180.13;5054295;28;45468;-69
2023/03/04 02:34:48;;;;;;;;;55.25;43.75;;;;;6.45;53.14;102190.78;5041135;28;45571;-72
2023/03/04 02:37:16;;;;;;;;;57.00;46.00;;;;;6.42;53.63;102191.56;5054781;28;45440;-70
2023/03/04 02:39:44;;;;;;;;;57.00;43.75;;;;;6.45;53.42;102190.78;5040344;28;46153;-67
2023/03/04 02:42:11;;;;;;;;;54.50;42.75;;;;;6.41;53.85;102192.38;5054542;28;45305;-67
2023/03/04 02:44:39;;;;;;;;;58.75;45.25;;;;;6.43;52.98;102195.94;5040085;28;45483;-70
2023/03/04 02:47:08;;;;;;;;;51.25;41.50;;;;;6.41;53.19;102189.78;5054941;28;45570;-68
2023/03/04 02:49:35;;;;;;;;;52.50;42.50;;;;;6.41;53.35;102186.28;5054090;28;46329;-71
2023/03/04 02:52:08;;;;;;;;;56.50;44.00;;;;;6.41;53.42;102183.66;5055382;28;45426;-69
2023/03/04 02:54:34;;;;;;;;;58.25;46.75;;;;;6.40;53.33;102180.19;5052606;28;45439;-72
2023/03/04 02:57:02;;;;;;;;;55.25;44.00;;;;;6.41;53.47;102174.16;5054495;28;45884;-67
2023/03/04 02:59:29;;;;;;;;;55.75;44.25;;;;;6.41;53.38;102179.38;5053992;28;45347;-67
2023/03/04 03:01:55;;;;;;;;;54.00;42.25;;;;;6.25;53.59;102151.81;5054316;28;45619;-66
2023/03/04 03:04:21;;;;;;;;;56.75;44.00;;;;;6.34;53.99;102167.81;5053793;28;45713;-72
2023/03/04 03:06:47;;;;;;;;;53.50;44.25;;;;;6.37;53.49;102170.53;5053525;28;45861;-66
2023/03/04 03:09:13;;;;;;;;;59.00;46.25;;;;;6.35;53.94;102166.09;5054086;28;45442;-65
2023/03/04 03:11:38;;;;;;;;;57.25;44.25;;;;;6.22;53.44;102154.28;5052420;28;45769;-65
2023/03/04 03:14:04;;;;;;;;;56.50;44.00;;;;;6.29;53.77;102158.03;5054267;28;45564;-67
2023/03/04 03:16:29;;;;;;;;;51.75;43.25;;;;;6.24;53.67;102150.03;5047753;28;45604;-66
2023/03/04 03:18:55;;;;;;;;;59.75;43.75;;;;;6.31;53.77;102162.50;5046593;28;46043;-66
2023/03/04 03:21:21;;;;;;;;;50.00;42.25;;;;;6.21;53.91;102147.28;5054127;28;45233;-66
2023/03/04 03:23:47;;;;;;;;;55.25;43.00;;;;;6.30;53.67;102155.50;5054589;28;45394;-67
2023/03/04 03:26:12;;;;;;;;;52.00;42.50;;;;;6.31;53.45;102169.38;5053856;28;45790;-66
2023/03/04 03:28:38;;;;;;;;;56.00;44.75;;;;;6.29;53.73;102166.72;5055634;28;45873;-66
2023/03/04 03:31:04;;;;;;;;;59.25;43.00;;;;;6.23;53.88;102156.06;5054059;28;45521;-68
2023/03/04 03:33:30;;;;;;;;;57.75;43.50;;;;;6.20;53.80;102152.44;5036055;28;45494;-65
2023/03/04 03:35:55;;;;;;;;;53.75;40.00;;;;;6.24;53.63;102160.44;5053775;28;45656;-66
2023/03/04 03:38:21;;;;;;;;;54.25;42.25;;;;;6.29;53.78;102163.25;5053387;28;45535;-66
2023/03/04 03:40:46;;;;;;;;;58.00;43.75;;;;;6.18;54.09;102136.75;5053605;28;45557;-69
2023/03/04 03:43:12;;;;;;;;;55.25;42.50;;;;;6.17;53.33;102137.59;5053884;28;45556;-68
2023/03/04 03:45:38;;;;;;;;;56.00;44.25;;;;;6.26;53.69;102156.19;5052114;28;45497;-65
2023/03/04 03:48:03;;;;;;;;;62.00;47.00;;;;;6.24;53.36;102155.25;5053496;28;45836;-65
2023/03/04 03:50:29;;;;;;;;;55.75;43.50;;;;;6.18;53.66;102148.88;5053955;28;45402;-67
2023/03/04 03:52:56;;;;;;;;;57.50;44.25;;;;;6.24;53.37;102160.44;5054649;28;45507;-67
2023/03/04 03:55:22;;;;;;;;;56.50;44.50;;;;;6.28;53.81;102169.25;5057734;28;45348;-66
2023/03/04 03:57:47;;;;;;;;;53.50;41.75;;;;;6.28;54.00;102170.13;5055554;28;46666;-71
2023/03/04 04:00:15;;;;;;;;;55.00;41.75;;;;;6.28;54.20;102174.47;5035049;28;45573;-65
2023/03/04 04:02:40;;;;;;;;;61.00;46.00;;;;;6.20;53.05;102179.34;5034865;28;45435;-66
2023/03/04 04:05:07;;;;;;;;;61.25;45.50;;;;;6.22;53.70;102177.72;5055708;28;45562;-70
2023/03/04 04:07:33;;;;;;;;;56.50;44.50;;;;;6.18;53.32;102172.31;5057228;28;46654;-66
2023/03/04 04:09:58;;;;;;;;;60.25;46.75;;;;;6.20;53.87;102181.94;5056240;28;45550;-65
2023/03/04 04:12:24;;;;;;;;;62.25;45.75;;;;;6.10;53.67;102170.25;5057658;28;45414;-66
2023/03/04 04:14:50;;;;;;;;;55.00;41.75;;;;;6.15;54.12;102180.88;5057927;28;45492;-69
2023/03/04 04:17:16;;;;;;;;;56.50;44.00;;;;;6.18;54.06;102191.41;5044634;28;45520;-67
2023/03/04 04:19:42;;;;;;;;;57.00;43.50;;;;;6.14;53.57;102184.28;5051778;28;45657;-65
2023/03/04 04:22:13;;;;;;;;;57.75;44.00;;;;;6.13;53.27;102188.59;5053325;28;45388;-69
2023/03/04 04:24:39;;;;;;;;;56.25;43.00;;;;;6.15;53.78;102194.75;5054913;28;45751;-68
2023/03/04 04:27:04;;;;;;;;;57.25;44.75;;;;;5.92;54.01;102151.22;5055169;28;45898;-66
2023/03/04 04:29:30;;;;;;;;;59.25;44.25;;;;;6.15;53.25;102191.28;5056138;28;45799;-69
2023/03/04 04:31:57;;;;;;;;;57.25;41.25;;;;;6.08;53.42;102182.31;5057308;28;45761;-65
2023/03/04 04:34:23;;;;;;;;;53.75;42.00;;;;;6.12;53.05;102193.72;5060056;28;45228;-69
2023/03/04 04:36:49;;;;;;;;;57.50;43.25;;;;;6.09;53.74;102191.88;5056199;28;46725;-66
2023/03/04 04:39:15;;;;;;;;;54.50;42.75;;;;;6.07;53.94;102183.13;5037951;28;45445;-68
2023/03/04 04:41:42;;;;;;;;;55.75;44.00;;;;;6.06;53.50;102185.66;5058318;28;45345;-66
2023/03/04 04:44:09;;;;;;;;;55.00;42.00;;;;;5.98;53.34;102180.13;5061229;28;45418;-67
2023/03/04 04:46:35;;;;;;;;;50.75;41.25;;;;;6.04;53.40;102184.72;5060403;28;45506;-68
2023/03/04 04:49:01;;;;;;;;;57.75;44.25;;;;;6.07;53.49;102203.03;5060736;28;45363;-66
2023/03/04 04:51:27;;;;;;;;;54.75;41.00;;;;;5.96;53.37;102179.19;5041192;28;45421;-67
2023/03/04 04:53:52;;;;;;;;;55.50;43.75;;;;;5.91;53.55;102183.25;5055077;28;45996;-65
2023/03/04 04:56:21;;;;;;;;;54.00;42.00;;;;;6.00;53.61;102207.06;5056041;28;46077;-67
2023/03/04 04:58:47;;;;;;;;;52.50;41.00;;;;;5.95;53.57;102203.38;5055972;28;45486;-66
2023/03/04 05:01:14;;;;;;;;;50.25;40.75;;;;;5.95;53.57;102203.38;5056451;28;45482;-67
2023/03/04 05:03:40;;;;;;;;;52.00;40.25;;;;;5.98;53.51;102216.56;5060800;28;45413;-67
2023/03/04 05:06:07;;;;;;;;;49.75;39.25;;;;;5.94;53.73;102212.91;5059861;28;45458;-70
2023/03/04 05:08:33;;;;;;;;;54.50;41.00;;;;;5.88;53.17;102209.09;5056244;28;45623;-67
2023/03/04 05:11:00;;;;;;;;;52.00;40.50;;;;;5.87;53.23;102195.22;5054862;28;45558;-69
2023/03/04 05:13:26;;;;;;;;;55.00;43.00;;;;;5.88;54.09;102207.38;5056873;28;45489;-69
2023/03/04 05:15:53;;;;;;;;;56.00;43.00;;;;;5.86;53.87;102209.06;5036361;28;48044;-68
2023/03/04 05:18:21;;;;;;;;;54.00;42.25;;;;;5.87;53.62;102215.13;5042631;28;45835;-70
2023/03/04 05:21:00;;;;;;;;;55.25;43.75;;;;;5.86;54.08;102210.75;5056690;28;45479;-66
2023/03/04 05:23:28;;;;;;;;;54.00;40.75;;;;;5.90;53.34;102221.34;5060111;28;45463;-67
2023/03/04 05:25:54;;;;;;;;;50.00;40.75;;;;;5.90;53.37;102213.56;5059778;28;45756;-70
2023/03/04 05:28:23;;;;;;;;;54.50;43.25;;;;;5.88;53.53;102230.78;5055176;28;45496;-68
2023/03/04 05:30:49;;;;;;;;;53.50;42.75;;;;;5.80;53.35;102213.09;5055184;28;45717;-66
2023/03/04 05:33:16;;;;;;;;;50.00;41.25;;;;;5.73;53.51;102210.19;5055698;28;45398;-67
2023/03/04 05:35:43;;;;;;;;;57.00;44.50;;;;;5.79;53.46;102225.19;5055073;28;46748;-66
2023/03/04 05:38:12;;;;;;;;;52.00;40.50;;;;;5.82;53.23;102230.53;5055124;28;45560;-67
2023/03/04 05:40:38;;;;;;;;;53.00;42.75;;;;;5.78;53.68;102225.13;5037661;28;45467;-68
2023/03/04 05:43:04;;;;;;;;;51.25;42.00;;;;;5.75;53.91;102223.28;5041311;28;45480;-69
2023/03/04 05:45:31;;;;;;;;;54.50;42.25;;;;;5.81;53.43;102227.84;5057569;28;45702;-65
2023/03/04 05:47:57;;;;;;;;;56.25;42.75;;;;;5.64;53.16;102204.56;5054906;28;45401;-66
2023/03/04 05:50:24;;;;;;;;;53.00;42.25;;;;;5.74;53.91;102226.69;5052393;28;45664;-68
2023/03/04 05:52:49;;;;;;;;;57.00;43.00;;;;;5.78;53.58;102227.72;5056710;28;46039;-69
2023/03/04 05:55:15;;;;;;;;;54.00;42.25;;;;;5.78;53.23;102228.59;5038506;28;46801;-68
2023/03/04 05:57:42;;;;;;;;;53.75;42.25;;;;;5.73;53.90;102231.00;5058478;28;45391;-67
2023/03/04 06:00:09;;;;;;;;;55.50;42.00;;;;;5.72;53.77;102220.53;5054427;28;45638;-67
2023/03/04 06:02:35;;;;;;;;;50.75;40.25;;;;;5.64;53.55;102212.38;5054378;28;45469;-72
2023/03/04 06:05:02;;;;;;;;;52.00;39.25;;;;;5.65;53.29;102218.50;5036179;28;47119;-68
2023/03/04 06:07:27;;;;;;;;;51.25;39.75;;;;;5.77;52.87;102238.97;5040278;28;45557;-67
2023/03/04 06:09:57;;;;;;;;;54.25;41.25;;;;;5.65;53.51;102234.09;5054503;28;45615;-71
2023/03/04 06:12:23;;;;;;;;;58.50;42.75;;;;;5.58;52.99;102221.63;5049947;28;45557;-68
2023/03/04 06:14:50;;;;;;;;;43.75;38.00;;;;;5.62;53.77;102237.41;5054144;28;46270;-66
2023/03/04 06:17:16;;;;;;;;;56.75;42.75;;;;;5.65;53.28;102239.28;5033767;28;45772;-71
2023/03/04 06:19:42;;;;;;;;;53.00;41.00;;;;;5.68;53.69;102250.69;5036140;28;45518;-72
2023/03/04 06:22:14;;;;;;;;;49.25;38.50;;;;;5.69;53.38;102247.25;5054730;28;45667;-71
2023/03/04 06:24:40;;;;;;;;;54.25;39.75;;;;;5.53;53.20;102222.28;5038730;28;46047;-71
2023/03/04 06:27:06;;;;;;;;;51.00;40.00;;;;;5.72;53.68;102251.75;5043806;28;45426;-69
2023/03/04 06:29:33;;;;;;;;;53.00;39.75;;;;;5.69;53.39;102246.38;5044722;28;45526;-68
2023/03/04 06:31:59;;;;;;;;;55.25;40.25;;;;;5.64;53.33;102237.47;5045900;28;45431;-68
2023/03/04 06:34:35;;;;;;;;;52.25;40.25;;;;;5.74;52.68;102252.69;5041948;28;46204;-71
2023/03/04 06:37:02;;;;;;;;;53.00;41.00;;;;;5.71;53.12;102250.81;5030429;28;46737;-69
2023/03/04 06:39:28;;;;;;;;;52.00;40.00;;;;;5.65;53.14;102237.56;5034952;28;45556;-66
2023/03/04 06:41:54;;;;;;;;;51.75;40.00;;;;;5.49;53.25;102212.56;5042482;28;45370;-68
2023/03/04 06:44:20;;;;;;;;;53.25;40.50;;;;;5.70;53.17;102249.06;5038767;28;46366;-64
2023/03/04 06:46:45;;;;;;;;;49.00;40.25;;;;;5.80;53.29;102263.38;5050920;28;45539;-65
2023/03/04 06:49:11;;;;;;;;;53.00;41.25;;;;;5.69;53.27;102242.06;5054546;28;45494;-66
2023/03/04 06:51:37;;;;;;;;;51.00;39.25;;;;;5.85;53.25;102268.78;5053106;28;45443;-70
2023/03/04 06:54:02;;;;;;;;;51.75;40.50;;;;;5.78;52.38;102253.72;5060469;28;46140;-70
2023/03/04 06:56:28;;;;;;;;;49.50;37.50;;;;;5.84;52.88;102267.03;5054280;28;45473;-66
2023/03/04 06:58:53;;;;;;;;;48.25;39.25;;;;;5.90;52.29;102273.38;5037927;28;45879;-67
2023/03/04 07:01:22;;;;;;;;;49.50;39.00;;;;;5.99;52.27;102282.44;5055189;28;45589;-66
2023/03/04 07:03:49;;;;;;;;;50.50;40.00;;;;;5.93;53.18;102263.13;5037838;28;45594;-69
2023/03/04 07:06:17;;;;;;;;;52.50;40.75;;;;;6.01;53.06;102267.81;5055315;28;45898;-69
2023/03/04 07:08:43;;;;;;;;;47.50;37.50;;;;;6.11;52.57;102270.88;5059451;28;45522;-67
2023/03/04 07:11:08;;;;;;;;;48.50;39.00;;;;;6.16;51.82;102279.78;5058131;28;45442;-70
2023/03/04 07:13:37;;;;;;;;;46.00;34.75;;;;;6.14;52.32;102257.13;5038462;28;46654;-68
2023/03/04 07:16:04;;;;;;;;;50.00;38.25;;;;;6.24;51.86;102263.63;5034298;28;45477;-69
2023/03/04 07:18:30;;;;;;;;;52.50;40.75;;;;;6.34;52.29;102278.84;5046309;28;45355;-71
2023/03/04 07:20:55;;;;;;;;;48.75;37.75;;;;;6.42;51.89;102272.22;5058046;28;45414;-66
2023/03/04 07:23:21;;;;;;;;;50.50;38.50;;;;;6.57;51.94;102293.75;5052994;28;45933;-71
2023/03/04 07:25:49;;;;;;;;;51.25;36.75;;;;;6.61;51.10;102273.91;5035859;28;45476;-71
2023/03/04 07:28:16;;;;;;;;;49.00;38.75;;;;;6.76;51.16;102273.66;5049273;28;45521;-70
2023/03/04 07:30:41;;;;;;;;;49.00;37.25;;;;;6.79;51.35;102266.00;5050560;28;45557;-68
2023/03/04 07:33:07;;;;;;;;;47.25;37.25;;;;;6.94;50.52;102281.38;5056216;28;47979;-70
2023/03/04 07:35:33;;;;;;;;;45.25;35.00;;;;;6.98;50.64;102275.47;5053190;28;45326;-67
2023/03/04 07:37:58;;;;;;;;;53.25;40.00;;;;;7.11;50.11;102292.50;5052632;28;45449;-67
2023/03/04 07:40:24;;;;;;;;;46.50;38.50;;;;;7.19;50.10;102283.28;5053967;28;45325;-66
2023/03/04 07:42:52;;;;;;;;;51.25;42.50;;;;;7.19;49.63;102272.88;5053314;28;46063;-68
2023/03/04 07:45:18;;;;;;;;;45.00;37.00;;;;;7.27;50.00;102276.66;5052363;28;45972;-70
2023/03/04 07:47:43;;;;;;;;;46.00;38.25;;;;;7.41;49.21;102285.03;5053503;28;45411;-66
2023/03/04 07:50:11;;;;;;;;;59.50;41.25;;;;;7.45;49.63;102284.34;5053476;28;45387;-68
2023/03/04 07:52:42;;;;;;;;;47.75;40.50;;;;;7.57;49.47;102295.25;5056243;28;48049;-69
2023/03/04 07:55:09;;;;;;;;;48.75;39.75;;;;;7.70;49.10;102303.53;5055808;28;45462;-67
2023/03/04 07:57:34;;;;;;;;;50.50;40.00;;;;;7.78;48.54;102289.97;5051981;28;45757;-71
2023/03/04 08:00:00;;;;;;;;;52.50;40.00;;;;;7.95;48.30;102302.72;5056798;28;45414;-71
2023/03/04 08:02:26;;;;;;;;;50.25;40.50;;;;;7.94;47.75;102285.31;5057115;28;45580;-70
2023/03/04 08:04:51;;;;;;;;;52.00;41.50;;;;;8.09;47.91;102304.13;5053124;28;45559;-68
2023/03/04 08:07:17;;;;;;;;;49.50;37.50;;;;;7.94;47.68;102262.72;5052441;28;45612;-69
2023/03/04 08:09:42;;;;;;;;;53.00;41.00;;;;;8.18;48.14;102307.09;5053414;28;45903;-68
2023/03/04 08:12:08;;;;;;;;;47.50;39.25;;;;;8.12;47.80;102308.63;5051820;28;47676;-67
2023/03/04 08:14:34;;;;;;;;;48.50;40.00;;;;;8.02;47.53;102294.31;5056018;28;45371;-70
2023/03/04 08:16:59;;;;;;;;;51.00;40.00;;;;;8.05;52.36;102320.53;5043766;28;45396;-67
2023/03/04 08:19:25;;;;;;;;;45.00;37.50;;;;;8.11;48.31;102325.09;5050404;28;45451;-65
2023/03/04 08:21:51;;;;;;;;;50.75;40.25;;;;;8.08;48.44;102328.47;5056579;28;46178;-70
2023/03/04 08:24:16;;;;;;;;;48.50;38.25;;;;;8.05;47.76;102324.03;5035182;28;45490;-67
2023/03/04 08:26:46;;;;;;;;;50.75;40.00;;;;;7.94;48.34;102309.69;5053595;28;45386;-67
2023/03/04 08:29:15;;;;;;;;;42.00;35.00;;;;;8.06;48.03;102324.91;5052157;28;45501;-66
2023/03/04 08:31:41;;;;;;;;;49.50;38.25;;;;;7.98;47.99;102310.69;5053150;28;45689;-66
2023/03/04 08:34:09;;;;;;;;;59.00;45.00;;;;;8.09;47.56;102319.78;5052463;28;45661;-67
2023/03/04 08:36:35;;;;;;;;;53.25;42.25;;;;;8.03;47.64;102322.19;5055876;28;45438;-72
2023/03/04 08:39:02;;;;;;;;;51.75;41.25;;;;;7.90;47.87;102302.59;5057710;28;45335;-72
2023/03/04 08:41:28;;;;;;;;;57.50;44.25;;;;;7.92;47.82;102310.44;5057263;28;46091;-65
2023/03/04 08:43:53;;;;;;;;;43.50;35.00;;;;;8.01;48.06;102324.75;5057126;28;45498;-69
2023/03/04 08:46:19;;;;;;;;;48.50;39.50;;;;;8.01;48.09;102323.84;5056815;28;45524;-69
2023/03/04 08:48:44;;;;;;;;;38.75;34.75;;;;;8.08;47.50;102334.56;5055581;28;45477;-64
2023/03/04 08:51:13;;;;;;;;;42.25;36.50;;;;;7.98;47.85;102326.34;5052712;28;46096;-66
2023/03/04 08:53:39;;;;;;;;;43.75;35.75;;;;;7.94;47.57;102324.44;5052213;28;45887;-66
2023/03/04 08:56:06;;;;;;;;;49.75;38.25;;;;;7.97;47.59;102335.91;5037311;28;45430;-65
2023/03/04 08:58:31;;;;;;;;;43.50;33.75;;;;;8.00;47.66;102328.19;5054718;28;45621;-68
2023/03/04 09:00:59;;;;;;;;;47.50;38.75;;;;;7.91;47.62;102334.78;5040564;28;46481;-71
2023/03/04 09:03:25;;;;;;;;;45.75;37.00;;;;;7.96;47.59;102334.13;5052583;28;45431;-73
2023/03/04 09:05:50;;;;;;;;;35.50;30.25;;;;;7.94;47.87;102327.94;5053231;28;45534;-70
2023/03/04 09:08:16;;;;;;;;;40.50;33.25;;;;;7.96;47.86;102338.44;5036881;28;45639;-67
2023/03/04 09:10:44;;;;;;;;;33.00;27.75;;;;;7.92;47.87;102321.78;5051680;28;46434;-72
2023/03/04 09:13:11;;;;;;;;;38.00;31.50;;;;;7.92;47.62;102331.31;5047400;28;45884;-73
2023/03/04 09:15:38;;;;;;;;;41.25;30.50;;;;;7.92;47.54;102332.22;5042337;28;45705;-70
2023/03/04 09:18:04;;;;;;;;;35.00;30.00;;;;;7.88;48.32;102335.56;5047634;28;45794;-70
2023/03/04 09:20:30;;;;;;;;;39.75;31.50;;;;;7.67;48.00;102316.47;5048204;28;47012;-72
2023/03/04 09:22:56;;;;;;;;;37.75;32.75;;;;;7.63;47.83;102349.34;5041108;28;45398;-69
2023/03/04 09:25:22;;;;;;;;;44.00;36.50;;;;;7.51;48.46;102351.47;5056867;28;45598;-69
2023/03/04 09:27:47;;;;;;;;;34.50;28.00;;;;;7.42;48.67;102346.75;5063503;28;45565;-66
2023/03/04 09:30:13;;;;;;;;;39.50;32.75;;;;;7.41;48.55;102355.41;5045222;28;46632;-67
2023/03/04 09:32:40;;;;;;;;;34.75;32.25;;;;;7.43;48.51;102361.59;5046999;28;45460;-67
2023/03/04 09:35:06;;;;;;;;;33.25;29.25;;;;;7.45;48.63;102352.13;5059155;28;45422;-71
2023/03/04 09:37:32;;;;;;;;;30.75;26.00;;;;;7.47;48.58;102341.72;5059097;28;45541;-67
2023/03/04 09:39:58;;;;;;;;;33.50;29.50;;;;;7.53;48.52;102355.03;5059345;28;45625;-67
2023/03/04 09:42:33;;;;;;;;;36.25;29.25;;;;;7.56;49.17;102357.75;5039880;28;45835;-68
2023/03/04 09:45:00;;;;;;;;;30.50;29.75;;;;;7.55;48.24;102349.03;5061795;28;45407;-66
2023/03/04 09:47:26;;;;;;;;;27.75;27.50;;;;;7.57;48.86;102347.38;5043381;28;45555;-67
2023/03/04 09:49:59;;;;;;;;;35.50;29.25;;;;;7.58;48.63;102346.53;5042711;28;46433;-68
2023/03/04 09:52:49;;;;;;;;;38.00;30.25;;;;;7.68;48.66;102362.56;5061045;28;45457;-66
2023/03/04 09:55:18;;;;;;;;;40.50;30.00;;;;;7.71;48.34;102362.69;5047018;28;45777;-71
2023/03/04 09:57:53;;;;;;;;;40.25;28.00;;;;;7.64;48.43;102340.72;5058738;28;45791;-68
2023/03/04 10:00:37;;;;;;;;;37.00;29.75;;;;;7.70;48.67;102359.19;5042624;28;45714;-66
2023/03/04 10:03:11;;;;;;;;;97.67;83.67;;;;;7.75;55.14;102352.44;5040506;28;45535;-70
2023/03/04 10:06:00;;;;;;;;;79.00;64.67;;;;;7.78;49.15;102339.53;5041414;28;45542;-72
2023/03/04 10:08:40;;;;;;;;;50.00;38.00;;;;;7.68;49.47;102354.75;5061693;28;45472;-65
2023/03/04 10:11:30;;;;;;;;;48.75;35.75;;;;;7.60;49.43;102351.84;5061160;28;45541;-72
2023/03/04 10:14:14;;;;;;;;;40.75;32.25;;;;;7.60;49.65;102362.25;5057387;28;45699;-65
2023/03/04 10:16:55;;;;;;;;;43.00;34.75;;;;;7.44;49.88;102352.94;5032220;28;45523;-65
2023/03/04 10:19:44;;;;;;;;;50.75;40.50;;;;;7.31;49.89;102354.16;5050510;28;45658;-65
2023/03/04 10:22:29;;;;;;;;;42.75;33.75;;;;;7.32;50.19;102352.44;5054563;28;45374;-65
2023/03/04 10:24:56;;;;;;;;;42.25;34.25;;;;;7.20;49.86;102343.28;5054533;28;45549;-65
2023/03/04 10:27:23;;;;;;;;;38.50;33.25;;;;;7.29;50.33;102347.09;5054595;28;45454;-70
2023/03/04 10:29:52;;;;;;;;;45.00;36.50;;;;;7.23;49.64;102326.88;5037165;28;45463;-69
2023/03/04 10:32:19;;;;;;;;;41.75;32.25;;;;;7.39;49.58;102350.13;5058163;28;45632;-71
2023/03/04 10:34:45;;;;;;;;;50.25;37.50;;;;;7.42;49.73;102344.16;5058648;28;45363;-76
2023/03/04 10:37:11;;;;;;;;;49.75;38.75;;;;;7.33;49.77;102341.16;5055164;28;45378;-67
2023/03/04 10:39:45;;;;;;;;;49.25;35.00;;;;;7.23;49.90;102332.06;5021857;28;45586;-68
2023/03/04 10:42:13;;;;;;;;;57.25;42.25;;;;;7.14;50.06;102332.59;5056800;28;46370;-69
2023/03/04 10:44:54;;;;;;;;;51.00;38.50;;;;;7.02;50.17;102334.69;5053259;28;45362;-69
2023/03/04 10:47:26;;;;;;;;;49.50;34.75;;;;;6.98;50.71;102322.38;5055030;28;45502;-66
2023/03/04 10:49:55;;;;;;;;;56.25;41.25;;;;;7.06;50.77;102327.91;5059273;28;45289;-70
2023/03/04 10:52:26;;;;;;;;;57.00;41.00;;;;;6.98;50.79;102328.47;5052692;28;46769;-75
2023/03/04 10:54:54;;;;;;;;;47.50;38.00;;;;;6.82;51.20;102317.34;5040568;28;45328;-72
2023/03/04 10:57:36;;;;;;;;;51.75;40.75;;;;;6.69;51.10;102302.88;5053237;28;45326;-76
2023/03/04 11:00:17;;;;;;;;;49.75;40.00;;;;;6.84;51.32;102326.09;5037167;28;45286;-74
2023/03/04 11:02:44;;;;;;;;;55.25;42.25;;;;;6.67;51.79;102299.31;5057151;28;45533;-68
2023/03/04 11:05:22;;;;;;;;;55.75;41.75;;;;;6.78;52.10;102319.78;5036493;28;45353;-66
2023/03/04 11:07:57;;;;;;;;;56.50;42.25;;;;;6.83;52.02;102321.69;5055930;28;45397;-69
2023/03/04 11:10:34;;;;;;;;;52.00;39.00;;;;;6.99;51.57;102311.09;5054854;28;46203;-70
2023/03/04 11:13:08;;;;;;;;;40.75;33.00;;;;;7.09;51.54;102318.47;5054460;28;45867;-73
2023/03/04 11:15:49;;;;;;;;;43.50;33.00;;;;;7.21;51.23;102312.88;5052245;28;45519;-73
2023/03/04 11:18:18;;;;;;;;;61.75;44.25;;;;;7.28;51.23;102309.69;5057682;28;45481;-74
2023/03/04 11:20:48;;;;;;;;;48.75;39.25;;;;;7.16;51.25;102293.56;5054265;28;45446;-66